Phoenix, Arizona
Traffic Map
Current Weather Conditions
Phoenix, Arizona
Clear
Clear
83°
Feels Like: 83°
Wind Chill: 83° Ceiling: Unl
Heat Index: 83° Visibility: 10mi
Dew Point: 22° Wind: 3mph
Humidity: 11% Direction: 140° (SE)
Pressure: 29.9in Gusts: 0mph
Raw Report DataKPHX 282251Z 14003KT 10SM CLR 28/M06 A2990 RMK AO2 SLP113 T02831056
Traffic Incident Summary
Active as of:
Severity:
Category:
InformationThere was an issue retrieving the traffic information for this location. Please try a different location or try again shortly.
Advertisements
Track Severe Weather on mobile